createdAt,value
2018-03-08T00:02:18.049Z,91.33
2018-03-08T00:06:22.766Z,91.34
2018-03-08T00:10:26.297Z,91.34
2018-03-08T00:14:35.108Z,91.36
2018-03-08T00:18:38.915Z,91.43
2018-03-08T00:22:44.810Z,91.49
2018-03-08T00:27:14.066Z,91.54
2018-03-08T00:35:29.204Z,91.62
2018-03-08T00:39:37.999Z,91.69
2018-03-08T00:43:44.683Z,91.75
2018-03-08T00:47:48.318Z,91.77
2018-03-08T00:51:53.433Z,91.80
2018-03-08T00:55:57.067Z,91.79
2018-03-08T01:00:00.522Z,91.77
2018-03-08T01:04:04.581Z,91.77
2018-03-08T01:08:11.069Z,91.81
2018-03-08T01:12:15.771Z,91.85
2018-03-08T01:20:33.601Z,91.94
2018-03-08T01:24:40.205Z,91.95
2018-03-08T01:28:44.545Z,91.97
2018-03-08T01:32:48.117Z,92.01
2018-03-08T01:41:08.562Z,92.01
2018-03-08T01:45:20.402Z,92.00
2018-03-08T01:49:27.312Z,91.97
2018-03-08T01:57:48.434Z,91.97
2018-03-08T02:01:56.150Z,92.01
2018-03-08T02:06:05.083Z,92.02
2018-03-08T02:10:10.521Z,92.04
2018-03-08T02:14:16.333Z,92.06
2018-03-08T02:18:21.371Z,92.07
2018-03-08T02:22:29.673Z,92.06
2018-03-08T02:26:33.307Z,92.08
2018-03-08T02:30:36.765Z,92.05
2018-03-08T02:34:41.135Z,92.06
2018-03-08T02:38:46.348Z,92.08
2018-03-08T02:42:51.787Z,92.08
2018-03-08T02:47:03.900Z,92.09
2018-03-08T02:51:10.335Z,92.06
2018-03-08T02:55:17.608Z,92.09
2018-03-08T02:59:26.293Z,92.10
2018-03-08T03:03:37.746Z,92.08
2018-03-08T03:07:43.904Z,92.07
2018-03-08T03:11:49.287Z,92.07
2018-03-08T03:15:58.727Z,92.16
2018-03-08T03:20:03.635Z,92.24
2018-03-08T03:24:07.820Z,92.34
2018-03-08T03:28:13.162Z,92.38
2018-03-08T03:32:18.176Z,92.42
2018-03-08T03:36:27.931Z,92.43
2018-03-08T03:40:42.918Z,92.41
2018-03-08T03:44:48.865Z,92.50
2018-03-08T03:48:57.012Z,92.60
2018-03-08T03:53:03.907Z,92.66
2018-03-08T03:57:07.446Z,92.72
2018-03-08T04:01:11.510Z,92.73
2018-03-08T04:05:15.762Z,92.73
2018-03-08T04:17:52.554Z,92.62
2018-03-08T04:22:00.325Z,92.69
2018-03-08T04:26:07.574Z,92.68
2018-03-08T04:30:11.177Z,92.73
2018-03-08T04:34:15.661Z,92.77
2018-03-08T04:42:57.199Z,92.76
2018-03-08T04:47:00.515Z,92.80
2018-03-08T04:51:03.834Z,92.85
2018-03-08T04:55:07.149Z,92.84
2018-03-08T04:59:11.222Z,92.88
2018-03-08T05:03:14.559Z,92.87
2018-03-08T05:07:17.875Z,92.90
2018-03-08T05:11:21.947Z,92.92
2018-03-08T05:15:25.272Z,92.95
2018-03-08T05:19:28.595Z,93.01
2018-03-08T05:23:31.930Z,93.09
2018-03-08T05:27:35.230Z,93.16
2018-03-08T05:31:38.550Z,93.23
2018-03-08T05:35:41.858Z,93.37
2018-03-08T05:39:45.159Z,93.53
2018-03-08T05:43:48.478Z,93.64
2018-03-08T05:47:51.791Z,93.66
2018-03-08T05:51:55.129Z,93.69
2018-03-08T05:55:59.201Z,93.75
2018-03-08T06:00:02.581Z,93.80
2018-03-08T06:04:05.900Z,93.83
2018-03-08T06:08:09.202Z,93.87
2018-03-08T06:12:12.538Z,93.87
2018-03-08T06:16:15.838Z,93.85
2018-03-08T06:20:19.172Z,93.85
2018-03-08T06:24:23.239Z,93.83
2018-03-08T06:28:26.567Z,93.82
2018-03-08T06:32:29.893Z,93.83
2018-03-08T06:36:33.974Z,93.86
2018-03-08T06:40:37.298Z,93.83
2018-03-08T06:44:40.598Z,93.82
2018-03-08T06:48:43.921Z,93.94
2018-03-08T06:52:47.996Z,93.96
2018-03-08T06:56:51.310Z,93.98
2018-03-08T07:00:54.627Z,94.04
2018-03-08T07:04:57.950Z,94.02
2018-03-08T07:09:02.046Z,94.01
2018-03-08T07:13:05.354Z,94.01
2018-03-08T07:17:08.678Z,94.00
2018-03-08T07:21:12.741Z,93.99
2018-03-08T07:25:16.076Z,93.95
2018-03-08T07:29:19.379Z,93.90
2018-03-08T07:33:22.704Z,93.89
2018-03-08T07:37:26.782Z,93.89
2018-03-08T07:41:30.107Z,93.89
2018-03-08T07:45:33.411Z,93.90
2018-03-08T07:49:36.726Z,93.87
2018-03-08T07:53:40.055Z,93.85
2018-03-08T07:57:43.363Z,93.80
2018-03-08T08:01:46.678Z,93.76
2018-03-08T08:06:07.451Z,93.71
2018-03-08T08:10:11.543Z,93.71
2018-03-08T08:14:14.870Z,93.71
2018-03-08T08:18:18.960Z,93.72
2018-03-08T08:22:22.277Z,93.71
2018-03-08T08:26:25.603Z,93.70
2018-03-08T08:30:29.672Z,93.69
2018-03-08T08:34:32.988Z,93.69
2018-03-08T08:38:36.310Z,93.75
2018-03-08T08:42:39.616Z,93.77
2018-03-08T08:46:42.996Z,93.80
2018-03-08T08:50:47.035Z,93.82
2018-03-08T08:54:51.555Z,93.82
2018-03-08T08:58:55.012Z,93.88
2018-03-08T09:02:58.346Z,93.91
2018-03-08T09:07:01.642Z,93.91
2018-03-08T09:11:04.964Z,93.91
2018-03-08T09:15:08.262Z,93.91
2018-03-08T09:19:11.587Z,93.92
2018-03-08T09:23:14.904Z,93.98
2018-03-08T09:27:18.976Z,93.99
2018-03-08T09:31:22.298Z,93.93
2018-03-08T09:35:27.763Z,93.87
2018-03-08T09:39:31.075Z,93.86
2018-03-08T09:43:34.407Z,93.81
2018-03-08T09:47:37.710Z,93.69
2018-03-08T09:51:41.035Z,93.57
2018-03-08T09:55:44.339Z,93.56
2018-03-08T09:59:47.656Z,93.68
2018-03-08T10:03:50.969Z,93.73
2018-03-08T10:07:54.283Z,93.80
2018-03-08T10:11:57.579Z,94.19
2018-03-08T10:16:00.911Z,94.38
2018-03-08T10:20:04.978Z,94.23
2018-03-08T10:24:08.295Z,93.71
2018-03-08T10:28:11.618Z,93.72
2018-03-08T10:32:15.019Z,93.74
2018-03-08T10:36:18.352Z,93.59
2018-03-08T10:44:25.742Z,92.74
2018-03-08T10:48:29.050Z,92.76
2018-03-08T10:52:32.358Z,92.66
2018-03-08T10:56:35.666Z,92.14
2018-03-08T11:00:44.368Z,92.01
2018-03-08T11:04:53.123Z,92.10
2018-03-08T11:08:56.430Z,92.21
2018-03-08T11:13:00.507Z,92.11
2018-03-08T11:17:03.834Z,92.29
2018-03-08T11:21:07.129Z,92.31
2018-03-08T11:25:10.442Z,92.01
2018-03-08T11:29:13.755Z,91.97
2018-03-08T11:33:17.078Z,91.64
2018-03-08T11:37:21.139Z,91.82
2018-03-08T11:41:24.447Z,91.24
2018-03-08T11:45:27.758Z,90.99
2018-03-08T11:49:31.051Z,90.67
2018-03-08T11:53:34.358Z,90.78
2018-03-08T11:57:37.670Z,90.90
2018-03-08T12:01:40.978Z,90.66
2018-03-08T12:05:44.294Z,90.46
2018-03-08T12:09:47.619Z,90.56
2018-03-08T12:13:51.676Z,90.56
2018-03-08T12:17:55.044Z,90.25
2018-03-08T12:21:58.307Z,90.50
2018-03-08T12:26:01.624Z,89.35
2018-03-08T12:30:04.933Z,89.01
2018-03-08T12:34:08.251Z,88.96
2018-03-08T12:38:12.334Z,88.95
2018-03-08T12:42:15.642Z,89.02
2018-03-08T12:46:18.971Z,88.89
2018-03-08T12:50:23.026Z,88.74
2018-03-08T12:54:26.335Z,88.53
2018-03-08T12:58:29.647Z,88.37
2018-03-08T13:02:32.956Z,86.47
2018-03-08T13:06:36.271Z,85.96
2018-03-08T13:10:39.588Z,85.36
2018-03-08T13:14:42.909Z,84.83
2018-03-08T13:18:46.987Z,84.83
2018-03-08T13:22:50.295Z,84.52
2018-03-08T13:26:53.618Z,84.43
2018-03-08T13:30:56.910Z,84.32
2018-03-08T13:35:00.219Z,83.81
2018-03-08T13:39:03.531Z,83.53
2018-03-08T13:43:06.846Z,83.66
2018-03-08T13:47:10.926Z,83.95
2018-03-08T13:51:14.225Z,83.75
2018-03-08T13:55:17.529Z,84.00
2018-03-08T13:59:20.838Z,83.87
2018-03-08T14:03:24.156Z,83.97
2018-03-08T14:07:27.485Z,84.00
2018-03-08T14:11:31.546Z,83.63
2018-03-08T14:15:34.865Z,83.44
2018-03-08T14:19:38.179Z,83.59
2018-03-08T14:23:41.474Z,83.64
2018-03-08T14:27:44.799Z,83.63
2018-03-08T14:31:48.119Z,83.41
2018-03-08T14:35:51.410Z,82.97
2018-03-08T14:39:55.483Z,82.88
2018-03-08T14:43:58.794Z,82.74
2018-03-08T14:48:02.107Z,82.64
2018-03-08T14:52:05.404Z,82.84
2018-03-08T14:56:08.714Z,82.85
2018-03-08T15:00:12.081Z,83.16
2018-03-08T15:04:15.330Z,83.35
2018-03-08T15:08:18.647Z,83.37
2018-03-08T15:12:22.722Z,83.42
2018-03-08T15:16:26.019Z,83.45
2018-03-08T15:20:29.327Z,83.42
2018-03-08T15:24:32.639Z,83.47
2018-03-08T15:28:35.946Z,83.43
2018-03-08T15:32:39.239Z,83.25
2018-03-08T15:36:42.551Z,83.36
2018-03-08T15:40:45.864Z,83.21
2018-03-08T15:44:49.195Z,83.43
2018-03-08T15:48:53.246Z,83.58
2018-03-08T15:52:56.898Z,83.68
2018-03-08T15:57:00.193Z,83.84
2018-03-08T16:01:03.520Z,83.89
2018-03-08T16:05:06.831Z,84.13
2018-03-08T16:09:10.923Z,84.45
2018-03-08T16:13:14.243Z,85.09
2018-03-08T16:17:17.560Z,85.67
2018-03-08T16:21:21.642Z,86.04
2018-03-08T16:25:24.995Z,86.67
2018-03-08T16:29:28.330Z,87.33
2018-03-08T16:33:31.653Z,88.03
2018-03-08T16:37:34.979Z,88.15
2018-03-08T16:41:38.280Z,88.74
2018-03-08T16:45:41.594Z,89.32
2018-03-08T16:49:45.667Z,90.13
2018-03-08T16:53:48.958Z,90.57
2018-03-08T16:57:52.286Z,91.16
2018-03-08T17:01:55.583Z,91.42
2018-03-08T17:05:58.907Z,91.74
2018-03-08T17:10:02.203Z,91.82
2018-03-08T17:14:05.524Z,91.60
2018-03-08T17:18:08.838Z,91.50
2018-03-08T17:22:12.156Z,91.50
2018-03-08T17:26:15.463Z,91.54
2018-03-08T17:30:18.796Z,91.57
2018-03-08T17:34:22.152Z,91.61
2018-03-08T17:38:25.423Z,92.14
2018-03-08T17:42:28.761Z,92.64
2018-03-08T17:46:32.843Z,92.62
2018-03-08T17:50:36.154Z,92.65
2018-03-08T17:54:39.462Z,92.65
2018-03-08T17:58:42.783Z,92.61
2018-03-08T18:02:46.871Z,92.66
2018-03-08T18:06:50.171Z,92.84
2018-03-08T18:10:53.498Z,93.04
2018-03-08T18:14:56.826Z,93.17
2018-03-08T18:19:00.136Z,92.65
2018-03-08T18:23:03.461Z,91.78
2018-03-08T18:27:06.798Z,90.12
2018-03-08T18:59:49.202Z,89.04
2018-03-08T19:03:52.515Z,89.40
2018-03-08T19:07:56.590Z,89.73
2018-03-08T19:11:59.895Z,89.97
2018-03-08T19:16:03.216Z,90.22
2018-03-08T19:20:06.515Z,90.42
2018-03-08T19:24:09.871Z,90.54
2018-03-08T19:28:13.212Z,90.67
2018-03-08T19:32:16.530Z,90.76
2018-03-08T19:36:19.847Z,90.82
2018-03-08T19:40:23.951Z,90.94
2018-03-08T19:44:27.283Z,91.09
2018-03-08T19:48:30.629Z,91.22
2018-03-08T19:52:33.942Z,91.30
2018-03-08T19:56:37.271Z,91.33
2018-03-08T20:00:40.619Z,91.30
2018-03-08T20:04:43.926Z,91.38
2018-03-08T20:08:47.255Z,91.46
2018-03-08T20:12:50.597Z,91.46
2018-03-08T20:16:54.692Z,91.50
2018-03-08T20:20:58.039Z,91.44
2018-03-08T20:25:01.364Z,91.39
2018-03-08T20:29:04.704Z,91.38
2018-03-08T20:33:08.017Z,91.42
2018-03-08T20:37:11.348Z,91.47
2018-03-08T20:41:14.659Z,91.70
2018-03-08T20:45:18.011Z,91.83
2018-03-08T20:49:21.323Z,91.92
2018-03-08T20:53:24.638Z,91.90
2018-03-08T20:57:27.948Z,91.89
2018-03-08T21:01:31.281Z,91.88
2018-03-08T21:05:34.583Z,91.91
2018-03-08T21:09:37.927Z,92.00
2018-03-08T21:13:41.259Z,92.10
2018-03-08T21:17:44.595Z,92.14
2018-03-08T21:21:47.928Z,92.17
2018-03-08T21:25:51.259Z,92.21
2018-03-08T21:29:54.554Z,92.22
2018-03-08T21:33:57.880Z,92.23
2018-03-08T21:38:01.212Z,92.21
2018-03-08T21:42:04.511Z,92.18
2018-03-08T21:46:07.839Z,92.16
2018-03-08T21:50:11.160Z,92.16
2018-03-08T21:54:14.500Z,92.19
2018-03-08T21:58:17.807Z,92.18
2018-03-08T22:02:21.138Z,92.20
2018-03-08T22:06:25.267Z,92.21
2018-03-08T22:10:28.581Z,92.25
2018-03-08T22:14:31.912Z,92.30
2018-03-08T22:18:35.237Z,92.31
2018-03-08T22:22:38.563Z,92.37
2018-03-08T22:26:41.876Z,92.39
2018-03-08T22:30:45.201Z,92.36
2018-03-08T22:34:48.520Z,92.37
2018-03-08T22:38:51.852Z,92.49
2018-03-08T22:42:55.180Z,92.50
2018-03-08T22:46:58.527Z,92.53
2018-03-08T22:51:01.842Z,92.55
2018-03-08T22:55:05.162Z,92.49
2018-03-08T22:59:08.515Z,92.31
2018-03-08T23:03:17.672Z,92.41
2018-03-08T23:07:21.092Z,92.27
2018-03-08T23:11:24.798Z,91.86
2018-03-08T23:19:48.746Z,91.53
2018-03-08T23:37:56.519Z,91.03
2018-03-08T23:41:59.967Z,91.39
2018-03-08T23:46:03.663Z,91.67
2018-03-08T23:50:07.064Z,92.03
2018-03-08T23:54:10.410Z,92.27
2018-03-08T23:58:13.793Z,92.34
